<?xml version="1.0" encoding="UTF-8" standalone="no" ?>
<gpx xmlns="http://www.topografix.com/GPX/1/1" xmlns:xsi="http://www.w3.org/2001/XMLSchema-instance" xsi:schemaLocation="http://www.topografix.com/GPX/1/1 http://www.topografix.com/GPX/1/1/gpx.xsd" version="1.1" creator="VisuGPX - https://www.visugpx.com">
  <metadata>
    <name>ARQUES LA SEYNE SUR MER 1497 KM</name>
    <desc><![CDATA[Rando de Arques dans le Pas de Calais jusque La Seyne sur Mer dans le Var, 1497 km]]></desc>
  </metadata>
  <trk>
    <name><![CDATA[28 - CHAMEREY MAREY LES FUSSEY 26.1 KM]]></name>
    <extensions>
      <line xmlns="http://www.topografix.com/GPX/gpx_style/0/2">
        <color>FF0000</color>
        <width>4</width>
      </line>
    </extensions>
    <trkseg>
      <trkpt lat="47.25636" lon="4.9075">
        <ele>510</ele>
        <time>2021-11-10T16:38:06+01:00</time>
      </trkpt>
      <trkpt lat="47.25466" lon="4.9138">
        <ele>505</ele>
        <time>2021-11-10T16:38:11+01:00</time>
      </trkpt>
      <trkpt lat="47.25427" lon="4.92055">
        <ele>532</ele>
        <time>2021-11-10T16:38:16+01:00</time>
      </trkpt>
      <trkpt lat="47.25506" lon="4.9248">
        <ele>539</ele>
        <time>2021-11-10T16:38:21+01:00</time>
      </trkpt>
      <trkpt lat="47.25457" lon="4.92934">
        <ele>532</ele>
        <time>2021-11-10T16:38:26+01:00</time>
      </trkpt>
      <trkpt lat="47.25121" lon="4.92892">
        <ele>526</ele>
        <time>2021-11-10T16:38:31+01:00</time>
      </trkpt>
      <trkpt lat="47.24489" lon="4.92464">
        <ele>536</ele>
        <time>2021-11-10T16:38:36+01:00</time>
      </trkpt>
      <trkpt lat="47.24041" lon="4.92418">
        <ele>520</ele>
        <time>2021-11-10T16:38:41+01:00</time>
      </trkpt>
      <trkpt lat="47.23845" lon="4.92146">
        <ele>515</ele>
        <time>2021-11-10T16:38:46+01:00</time>
      </trkpt>
      <trkpt lat="47.23629" lon="4.91943">
        <ele>499</ele>
        <time>2021-11-10T16:38:51+01:00</time>
      </trkpt>
      <trkpt lat="47.23331" lon="4.91382">
        <ele>491</ele>
        <time>2021-11-10T16:38:56+01:00</time>
      </trkpt>
      <trkpt lat="47.2313" lon="4.90943">
        <ele>497</ele>
        <time>2021-11-10T16:39:01+01:00</time>
      </trkpt>
      <trkpt lat="47.23126" lon="4.90642">
        <ele>497</ele>
        <time>2021-11-10T16:39:06+01:00</time>
      </trkpt>
      <trkpt lat="47.22608" lon="4.90428">
        <ele>464</ele>
        <time>2021-11-10T16:39:11+01:00</time>
      </trkpt>
      <trkpt lat="47.22655" lon="4.90249">
        <ele>460</ele>
        <time>2021-11-10T16:39:16+01:00</time>
      </trkpt>
      <trkpt lat="47.22565" lon="4.90052">
        <ele>453</ele>
        <time>2021-11-10T16:39:21+01:00</time>
      </trkpt>
      <trkpt lat="47.22494" lon="4.89977">
        <ele>448</ele>
        <time>2021-11-10T16:39:26+01:00</time>
      </trkpt>
      <trkpt lat="47.22408" lon="4.89532">
        <ele>444</ele>
        <time>2021-11-10T16:39:31+01:00</time>
      </trkpt>
      <trkpt lat="47.22203" lon="4.89387">
        <ele>434</ele>
        <time>2021-11-10T16:39:36+01:00</time>
      </trkpt>
      <trkpt lat="47.22152" lon="4.89277">
        <ele>428</ele>
        <time>2021-11-10T16:39:41+01:00</time>
      </trkpt>
      <trkpt lat="47.22046" lon="4.89231">
        <ele>422</ele>
        <time>2021-11-10T16:39:46+01:00</time>
      </trkpt>
      <trkpt lat="47.22019" lon="4.89115">
        <ele>418</ele>
        <time>2021-11-10T16:39:51+01:00</time>
      </trkpt>
      <trkpt lat="47.21846" lon="4.89052">
        <ele>414</ele>
        <time>2021-11-10T16:39:56+01:00</time>
      </trkpt>
      <trkpt lat="47.21422" lon="4.88404">
        <ele>391</ele>
        <time>2021-11-10T16:40:01+01:00</time>
      </trkpt>
      <trkpt lat="47.21276" lon="4.88438">
        <ele>387</ele>
        <time>2021-11-10T16:40:06+01:00</time>
      </trkpt>
      <trkpt lat="47.2117" lon="4.88398">
        <ele>379</ele>
        <time>2021-11-10T16:40:11+01:00</time>
      </trkpt>
      <trkpt lat="47.21017" lon="4.88491">
        <ele>377</ele>
        <time>2021-11-10T16:40:16+01:00</time>
      </trkpt>
      <trkpt lat="47.20934" lon="4.88375">
        <ele>375</ele>
        <time>2021-11-10T16:40:21+01:00</time>
      </trkpt>
      <trkpt lat="47.20718" lon="4.88346">
        <ele>371</ele>
        <time>2021-11-10T16:40:26+01:00</time>
      </trkpt>
      <trkpt lat="47.20663" lon="4.88462">
        <ele>368</ele>
        <time>2021-11-10T16:40:31+01:00</time>
      </trkpt>
      <trkpt lat="47.20345" lon="4.88224">
        <ele>363</ele>
        <time>2021-11-10T16:40:36+01:00</time>
      </trkpt>
      <trkpt lat="47.20212" lon="4.88201">
        <ele>362</ele>
        <time>2021-11-10T16:40:41+01:00</time>
      </trkpt>
      <trkpt lat="47.2007" lon="4.8808">
        <ele>355</ele>
        <time>2021-11-10T16:40:46+01:00</time>
      </trkpt>
      <trkpt lat="47.19878" lon="4.88155">
        <ele>350</ele>
        <time>2021-11-10T16:40:51+01:00</time>
      </trkpt>
      <trkpt lat="47.19736" lon="4.88039">
        <ele>347</ele>
        <time>2021-11-10T16:40:56+01:00</time>
      </trkpt>
      <trkpt lat="47.19559" lon="4.88167">
        <ele>340</ele>
        <time>2021-11-10T16:41:01+01:00</time>
      </trkpt>
      <trkpt lat="47.19382" lon="4.88404">
        <ele>337</ele>
        <time>2021-11-10T16:41:06+01:00</time>
      </trkpt>
      <trkpt lat="47.19225" lon="4.88496">
        <ele>332</ele>
        <time>2021-11-10T16:41:11+01:00</time>
      </trkpt>
      <trkpt lat="47.19304" lon="4.8867">
        <ele>342</ele>
        <time>2021-11-10T16:41:16+01:00</time>
      </trkpt>
      <trkpt lat="47.19426" lon="4.88687">
        <ele>339</ele>
        <time>2021-11-10T16:41:21+01:00</time>
      </trkpt>
      <trkpt lat="47.19386" lon="4.88757">
        <ele>344</ele>
        <time>2021-11-10T16:41:26+01:00</time>
      </trkpt>
      <trkpt lat="47.19449" lon="4.88809">
        <ele>347</ele>
        <time>2021-11-10T16:41:31+01:00</time>
      </trkpt>
      <trkpt lat="47.19398" lon="4.88942">
        <ele>362</ele>
        <time>2021-11-10T16:41:36+01:00</time>
      </trkpt>
      <trkpt lat="47.19343" lon="4.88872">
        <ele>359</ele>
        <time>2021-11-10T16:41:41+01:00</time>
      </trkpt>
      <trkpt lat="47.19272" lon="4.88918">
        <ele>365</ele>
        <time>2021-11-10T16:41:46+01:00</time>
      </trkpt>
      <trkpt lat="47.19092" lon="4.88976">
        <ele>380</ele>
        <time>2021-11-10T16:41:51+01:00</time>
      </trkpt>
      <trkpt lat="47.19013" lon="4.89231">
        <ele>392</ele>
        <time>2021-11-10T16:41:56+01:00</time>
      </trkpt>
      <trkpt lat="47.18883" lon="4.89283">
        <ele>401</ele>
        <time>2021-11-10T16:42:01+01:00</time>
      </trkpt>
      <trkpt lat="47.1873" lon="4.89491">
        <ele>417</ele>
        <time>2021-11-10T16:42:06+01:00</time>
      </trkpt>
      <trkpt lat="47.18333" lon="4.8926">
        <ele>422</ele>
        <time>2021-11-10T16:42:11+01:00</time>
      </trkpt>
      <trkpt lat="47.1807" lon="4.89011">
        <ele>459</ele>
        <time>2021-11-10T16:42:16+01:00</time>
      </trkpt>
      <trkpt lat="47.17948" lon="4.89011">
        <ele>481</ele>
        <time>2021-11-10T16:42:21+01:00</time>
      </trkpt>
      <trkpt lat="47.17869" lon="4.88872">
        <ele>491</ele>
        <time>2021-11-10T16:42:26+01:00</time>
      </trkpt>
      <trkpt lat="47.17468" lon="4.88652">
        <ele>476</ele>
        <time>2021-11-10T16:42:31+01:00</time>
      </trkpt>
      <trkpt lat="47.17134" lon="4.88514">
        <ele>423</ele>
        <time>2021-11-10T16:42:36+01:00</time>
      </trkpt>
      <trkpt lat="47.17268" lon="4.8834">
        <ele>404</ele>
        <time>2021-11-10T16:42:41+01:00</time>
      </trkpt>
      <trkpt lat="47.17433" lon="4.8819">
        <ele>372</ele>
        <time>2021-11-10T16:42:46+01:00</time>
      </trkpt>
      <trkpt lat="47.17543" lon="4.88016">
        <ele>346</ele>
        <time>2021-11-10T16:42:51+01:00</time>
      </trkpt>
      <trkpt lat="47.17684" lon="4.87958">
        <ele>324</ele>
        <time>2021-11-10T16:42:56+01:00</time>
      </trkpt>
      <trkpt lat="47.17751" lon="4.87889">
        <ele>311</ele>
        <time>2021-11-10T16:43:01+01:00</time>
      </trkpt>
      <trkpt lat="47.17857" lon="4.87698">
        <ele>326</ele>
        <time>2021-11-10T16:43:06+01:00</time>
      </trkpt>
      <trkpt lat="47.17779" lon="4.87559">
        <ele>340</ele>
        <time>2021-11-10T16:43:11+01:00</time>
      </trkpt>
      <trkpt lat="47.17735" lon="4.87299">
        <ele>368</ele>
        <time>2021-11-10T16:43:16+01:00</time>
      </trkpt>
      <trkpt lat="47.17783" lon="4.86426">
        <ele>409</ele>
        <time>2021-11-10T16:43:21+01:00</time>
      </trkpt>
      <trkpt lat="47.17731" lon="4.86304">
        <ele>415</ele>
        <time>2021-11-10T16:43:26+01:00</time>
      </trkpt>
      <trkpt lat="47.17731" lon="4.86056">
        <ele>410</ele>
        <time>2021-11-10T16:43:31+01:00</time>
      </trkpt>
      <trkpt lat="47.17775" lon="4.85894">
        <ele>411</ele>
        <time>2021-11-10T16:43:36+01:00</time>
      </trkpt>
      <trkpt lat="47.17763" lon="4.85755">
        <ele>404</ele>
        <time>2021-11-10T16:43:41+01:00</time>
      </trkpt>
      <trkpt lat="47.17889" lon="4.855">
        <ele>408</ele>
        <time>2021-11-10T16:43:46+01:00</time>
      </trkpt>
      <trkpt lat="47.17767" lon="4.85414">
        <ele>377</ele>
        <time>2021-11-10T16:43:51+01:00</time>
      </trkpt>
      <trkpt lat="47.1761" lon="4.85483">
        <ele>374</ele>
        <time>2021-11-10T16:43:56+01:00</time>
      </trkpt>
      <trkpt lat="47.17154" lon="4.8524">
        <ele>409</ele>
        <time>2021-11-10T16:44:01+01:00</time>
      </trkpt>
      <trkpt lat="47.17016" lon="4.85286">
        <ele>416</ele>
        <time>2021-11-10T16:44:06+01:00</time>
      </trkpt>
      <trkpt lat="47.17008" lon="4.85211">
        <ele>421</ele>
        <time>2021-11-10T16:44:11+01:00</time>
      </trkpt>
      <trkpt lat="47.1687" lon="4.85165">
        <ele>412</ele>
        <time>2021-11-10T16:44:16+01:00</time>
      </trkpt>
      <trkpt lat="47.1678" lon="4.85246">
        <ele>405</ele>
        <time>2021-11-10T16:44:21+01:00</time>
      </trkpt>
      <trkpt lat="47.16792" lon="4.8535">
        <ele>405</ele>
        <time>2021-11-10T16:44:26+01:00</time>
      </trkpt>
      <trkpt lat="47.16654" lon="4.85344">
        <ele>388</ele>
        <time>2021-11-10T16:44:31+01:00</time>
      </trkpt>
      <trkpt lat="47.16548" lon="4.85252">
        <ele>379</ele>
        <time>2021-11-10T16:44:36+01:00</time>
      </trkpt>
      <trkpt lat="47.16406" lon="4.85321">
        <ele>386</ele>
        <time>2021-11-10T16:44:41+01:00</time>
      </trkpt>
      <trkpt lat="47.16222" lon="4.85292">
        <ele>402</ele>
        <time>2021-11-10T16:44:46+01:00</time>
      </trkpt>
      <trkpt lat="47.16108" lon="4.85327">
        <ele>418</ele>
        <time>2021-11-10T16:44:51+01:00</time>
      </trkpt>
      <trkpt lat="47.15946" lon="4.85217">
        <ele>411</ele>
        <time>2021-11-10T16:44:56+01:00</time>
      </trkpt>
      <trkpt lat="47.15923" lon="4.8502">
        <ele>408</ele>
        <time>2021-11-10T16:45:01+01:00</time>
      </trkpt>
      <trkpt lat="47.15805" lon="4.84905">
        <ele>393</ele>
        <time>2021-11-10T16:45:06+01:00</time>
      </trkpt>
      <trkpt lat="47.15742" lon="4.85124">
        <ele>379</ele>
        <time>2021-11-10T16:45:11+01:00</time>
      </trkpt>
      <trkpt lat="47.15526" lon="4.85078">
        <ele>364</ele>
        <time>2021-11-10T16:45:16+01:00</time>
      </trkpt>
      <trkpt lat="47.15156" lon="4.85234">
        <ele>382</ele>
        <time>2021-11-10T16:45:21+01:00</time>
      </trkpt>
      <trkpt lat="47.15073" lon="4.85153">
        <ele>405</ele>
        <time>2021-11-10T16:45:26+01:00</time>
      </trkpt>
      <trkpt lat="47.14975" lon="4.85211">
        <ele>411</ele>
        <time>2021-11-10T16:45:31+01:00</time>
      </trkpt>
      <trkpt lat="47.149" lon="4.85142">
        <ele>433</ele>
        <time>2021-11-10T16:45:36+01:00</time>
      </trkpt>
      <trkpt lat="47.14798" lon="4.85229">
        <ele>437</ele>
        <time>2021-11-10T16:45:41+01:00</time>
      </trkpt>
      <trkpt lat="47.14527" lon="4.85292">
        <ele>440</ele>
        <time>2021-11-10T16:45:46+01:00</time>
      </trkpt>
      <trkpt lat="47.14397" lon="4.85223">
        <ele>429</ele>
        <time>2021-11-10T16:45:51+01:00</time>
      </trkpt>
      <trkpt lat="47.14094" lon="4.84818">
        <ele>368</ele>
        <time>2021-11-10T16:45:56+01:00</time>
      </trkpt>
      <trkpt lat="47.13978" lon="4.84779">
        <ele>351</ele>
        <time>2021-11-10T16:46:01+01:00</time>
      </trkpt>
      <trkpt lat="47.13983" lon="4.8465">
        <ele>347</ele>
        <time>2021-11-10T16:46:06+01:00</time>
      </trkpt>
      <trkpt lat="47.13928" lon="4.84526">
        <ele>336</ele>
        <time>2021-11-10T16:46:11+01:00</time>
      </trkpt>
      <trkpt lat="47.13948" lon="4.8444">
        <ele>337</ele>
        <time>2021-11-10T16:46:16+01:00</time>
      </trkpt>
      <trkpt lat="47.1389" lon="4.84345">
        <ele>334</ele>
        <time>2021-11-10T16:46:21+01:00</time>
      </trkpt>
      <trkpt lat="47.13865" lon="4.84438">
        <ele>330</ele>
        <time>2021-11-10T16:46:26+01:00</time>
      </trkpt>
      <trkpt lat="47.13792" lon="4.84444">
        <ele>331</ele>
        <time>2021-11-10T16:46:31+01:00</time>
      </trkpt>
      <trkpt lat="47.13743" lon="4.84564">
        <ele>336</ele>
        <time>2021-11-10T16:46:36+01:00</time>
      </trkpt>
      <trkpt lat="47.13681" lon="4.84446">
        <ele>351</ele>
        <time>2021-11-10T16:46:41+01:00</time>
      </trkpt>
      <trkpt lat="47.13592" lon="4.84348">
        <ele>360</ele>
        <time>2021-11-10T16:46:46+01:00</time>
      </trkpt>
      <trkpt lat="47.13391" lon="4.84393">
        <ele>389</ele>
        <time>2021-11-10T16:46:51+01:00</time>
      </trkpt>
      <trkpt lat="47.13303" lon="4.84431">
        <ele>407</ele>
        <time>2021-11-10T16:46:56+01:00</time>
      </trkpt>
      <trkpt lat="47.13198" lon="4.84373">
        <ele>421</ele>
        <time>2021-11-10T16:47:01+01:00</time>
      </trkpt>
      <trkpt lat="47.1314" lon="4.84378">
        <ele>429</ele>
        <time>2021-11-10T16:47:06+01:00</time>
      </trkpt>
      <trkpt lat="47.1308" lon="4.8441">
        <ele>435</ele>
        <time>2021-11-10T16:47:11+01:00</time>
      </trkpt>
      <trkpt lat="47.12908" lon="4.84371">
        <ele>429</ele>
        <time>2021-11-10T16:47:16+01:00</time>
      </trkpt>
      <trkpt lat="47.12849" lon="4.84375">
        <ele>427</ele>
        <time>2021-11-10T16:47:21+01:00</time>
      </trkpt>
      <trkpt lat="47.12779" lon="4.84337">
        <ele>430</ele>
        <time>2021-11-10T16:47:26+01:00</time>
      </trkpt>
      <trkpt lat="47.12756" lon="4.84403">
        <ele>430</ele>
        <time>2021-11-10T16:47:31+01:00</time>
      </trkpt>
      <trkpt lat="47.12683" lon="4.84444">
        <ele>433</ele>
        <time>2021-11-10T16:47:36+01:00</time>
      </trkpt>
      <trkpt lat="47.12576" lon="4.84504">
        <ele>432</ele>
        <time>2021-11-10T16:47:41+01:00</time>
      </trkpt>
      <trkpt lat="47.12398" lon="4.84515">
        <ele>438</ele>
        <time>2021-11-10T16:47:46+01:00</time>
      </trkpt>
      <trkpt lat="47.12397" lon="4.84463">
        <ele>442</ele>
        <time>2021-11-10T16:47:51+01:00</time>
      </trkpt>
      <trkpt lat="47.12249" lon="4.84494">
        <ele>443</ele>
        <time>2021-11-10T16:47:56+01:00</time>
      </trkpt>
      <trkpt lat="47.12211" lon="4.84616">
        <ele>440</ele>
        <time>2021-11-10T16:48:01+01:00</time>
      </trkpt>
      <trkpt lat="47.1211" lon="4.85047">
        <ele>427</ele>
        <time>2021-11-10T16:48:06+01:00</time>
      </trkpt>
      <trkpt lat="47.12035" lon="4.85266">
        <ele>422</ele>
        <time>2021-11-10T16:48:11+01:00</time>
      </trkpt>
      <trkpt lat="47.12078" lon="4.85459">
        <ele>413</ele>
        <time>2021-11-10T16:48:16+01:00</time>
      </trkpt>
      <trkpt lat="47.12005" lon="4.85721">
        <ele>409</ele>
        <time>2021-11-10T16:48:21+01:00</time>
      </trkpt>
      <trkpt lat="47.11944" lon="4.85809">
        <ele>408</ele>
        <time>2021-11-10T16:48:26+01:00</time>
      </trkpt>
      <trkpt lat="47.11829" lon="4.86101">
        <ele>399</ele>
        <time>2021-11-10T16:48:31+01:00</time>
      </trkpt>
      <trkpt lat="47.11786" lon="4.86322">
        <ele>392</ele>
        <time>2021-11-10T16:48:36+01:00</time>
      </trkpt>
      <trkpt lat="47.11749" lon="4.86383">
        <ele>388</ele>
        <time>2021-11-10T16:48:41+01:00</time>
      </trkpt>
    </trkseg>
  </trk>
</gpx>